Time;durP1;ratioP1;P1;durP2;ratioP2;P2;SDS_P1;SDS_P2;PMS_P1;PMS_P2;Temp;Humidity;BMP_temperature;BMP_pressure;BME280_temperature;BME280_humidity;BME280_pressure;Samples;Min_cycle;Max_cycle;Signal;HPM_P1;HPM_P2
2023/02/19 00:01:52;;;;;;;15.43;14.03;;;7.60;99.90;;;;;;4995277;28;21098;-73
2023/02/19 00:04:22;;;;;;;15.33;13.77;;;7.50;99.90;;;;;;4996174;28;20949;-73
2023/02/19 00:06:52;;;;;;;15.00;13.60;;;7.50;99.90;;;;;;4978580;28;20905;-73
2023/02/19 00:09:20;;;;;;;14.40;12.80;;;7.50;99.90;;;;;;4995979;28;20445;-73
2023/02/19 00:11:49;;;;;;;15.13;13.60;;;7.40;99.90;;;;;;4995933;28;20465;-73
2023/02/19 00:14:20;;;;;;;15.53;14.03;;;7.40;99.90;;;;;;4994659;28;20455;-73
2023/02/19 00:16:49;;;;;;;14.70;13.27;;;7.40;99.90;;;;;;4995982;28;20513;-73
2023/02/19 00:19:19;;;;;;;15.50;14.00;;;7.40;99.90;;;;;;4994526;28;20838;-72
2023/02/19 00:21:47;;;;;;;15.10;13.60;;;7.40;99.90;;;;;;4995666;28;20856;-72
2023/02/19 00:24:17;;;;;;;16.00;14.40;;;7.40;99.90;;;;;;4978380;28;20454;-72
2023/02/19 00:26:46;;;;;;;16.17;14.57;;;7.40;99.90;;;;;;4996203;28;20857;-72
2023/02/19 00:29:17;;;;;;;17.13;15.43;;;7.40;99.90;;;;;;4995569;28;20443;-72
2023/02/19 00:31:45;;;;;;;17.60;15.90;;;7.40;99.90;;;;;;4978036;28;20466;-72
2023/02/19 00:34:15;;;;;;;18.47;16.57;;;7.40;99.90;;;;;;4994283;28;20451;-72
2023/02/19 00:36:43;;;;;;;19.07;17.13;;;7.30;99.90;;;;;;4994277;28;20455;-72
2023/02/19 00:39:15;;;;;;;17.70;15.80;;;7.30;99.90;;;;;;4995397;28;20558;-72
2023/02/19 00:41:45;;;;;;;16.90;14.43;;;7.30;99.90;;;;;;4995377;28;20539;-72
2023/02/19 00:44:13;;;;;;;18.63;14.47;;;7.20;99.90;;;;;;4978147;28;20453;-72
2023/02/19 00:46:43;;;;;;;14.37;12.87;;;7.20;99.90;;;;;;4995306;28;20957;-72
2023/02/19 00:49:16;;;;;;;16.23;13.20;;;7.20;99.90;;;;;;4977881;28;20864;-72
2023/02/19 00:51:45;;;;;;;18.03;13.37;;;7.20;99.90;;;;;;4977841;28;20463;-72
2023/02/19 00:54:14;;;;;;;16.90;13.00;;;7.10;99.90;;;;;;4993915;28;20456;-72
2023/02/19 00:56:44;;;;;;;15.60;12.43;;;7.10;99.90;;;;;;4993866;28;20993;-72
2023/02/19 00:59:13;;;;;;;14.00;11.30;;;7.10;99.90;;;;;;4994974;28;20472;-72
2023/02/19 01:01:44;;;;;;;14.33;10.83;;;7.00;99.90;;;;;;4994903;28;20561;-72
2023/02/19 01:04:12;;;;;;;14.13;12.50;;;7.00;99.90;;;;;;4977601;28;20454;-72
2023/02/19 01:06:40;;;;;;;12.87;11.00;;;7.00;99.90;;;;;;4993733;28;20546;-72
2023/02/19 01:09:09;;;;;;;13.67;10.67;;;6.90;99.90;;;;;;4994850;28;20562;-72
2023/02/19 01:11:37;;;;;;;14.03;10.30;;;6.90;99.90;;;;;;4977273;28;20473;-72
2023/02/19 01:14:07;;;;;;;12.17;9.60;;;6.90;99.90;;;;;;4994990;28;20466;-72
2023/02/19 01:16:35;;;;;;;12.50;9.70;;;6.90;99.90;;;;;;4993533;28;21007;-72
2023/02/19 01:19:04;;;;;;;12.13;9.20;;;6.80;99.90;;;;;;4993306;28;20456;-72
2023/02/19 01:21:32;;;;;;;12.20;8.60;;;6.80;99.90;;;;;;4977102;28;20466;-72
2023/02/19 01:24:00;;;;;;;11.97;8.70;;;6.70;99.90;;;;;;4995144;28;20477;-72
2023/02/19 01:26:31;;;;;;;12.40;9.57;;;6.70;99.90;;;;;;4977148;28;20504;-72
2023/02/19 01:28:59;;;;;;;10.53;7.77;;;6.70;99.90;;;;;;4994637;28;20440;-72
2023/02/19 01:31:30;;;;;;;9.03;5.90;;;6.70;99.90;;;;;;4993201;28;20895;-72
2023/02/19 01:34:01;;;;;;;8.30;5.93;;;6.60;99.90;;;;;;4977256;28;20449;-72
2023/02/19 01:36:32;;;;;;;8.87;5.83;;;6.60;99.90;;;;;;4977035;28;20925;-72
2023/02/19 01:39:02;;;;;;;8.60;5.37;;;6.60;99.90;;;;;;4993159;28;20508;-72
2023/02/19 01:41:32;;;;;;;8.17;5.30;;;6.60;99.90;;;;;;4993052;28;20506;-72
2023/02/19 01:44:07;;;;;;;9.40;5.97;;;6.60;99.90;;;;;;4976889;28;20864;-72
2023/02/19 01:46:38;;;;;;;8.00;5.47;;;6.60;99.90;;;;;;4993028;28;20940;-72
2023/02/19 01:49:10;;;;;;;10.53;6.87;;;6.60;99.90;;;;;;4994505;28;20423;-72
2023/02/19 01:51:44;;;;;;;12.40;8.27;;;6.60;99.90;;;;;;4992912;28;20595;-72
2023/02/19 01:54:14;;;;;;;11.83;8.40;;;6.60;99.90;;;;;;4976673;28;20440;-72
2023/02/19 01:56:45;;;;;;;12.40;9.47;;;6.60;99.90;;;;;;4992900;28;20449;-72
2023/02/19 01:59:13;;;;;;;12.90;9.23;;;6.60;99.90;;;;;;4992756;28;20473;-72
2023/02/19 02:01:43;;;;;;;10.70;7.30;;;6.50;99.90;;;;;;4976419;28;20516;-72
2023/02/19 02:04:14;;;;;;;12.07;9.57;;;6.50;99.90;;;;;;4976023;28;20460;-72
2023/02/19 02:06:48;;;;;;;11.50;8.57;;;6.50;99.90;;;;;;4992454;28;20458;-72
2023/02/19 02:12:05;;;;;;;10.53;8.57;;;6.50;99.90;;;;;;4976487;28;20505;-72
2023/02/19 02:14:36;;;;;;;13.80;9.93;;;6.50;99.90;;;;;;4976400;28;20511;-72
2023/02/19 02:17:17;;;;;;;10.37;8.07;;;6.50;99.90;;;;;;4976658;28;20438;-72
2023/02/19 02:20:11;;;;;;;9.10;7.37;;;6.50;99.90;;;;;;4976244;28;20900;-72
2023/02/19 02:22:46;;;;;;;10.70;7.10;;;6.50;99.90;;;;;;4992546;28;20449;-72
2023/02/19 02:25:51;;;;;;;9.87;7.37;;;6.40;99.90;;;;;;4976363;28;20480;-72
2023/02/19 02:28:37;;;;;;;8.60;6.57;;;6.40;99.90;;;;;;4976241;28;20440;-72
2023/02/19 02:31:09;;;;;;;8.63;6.20;;;6.40;99.90;;;;;;4993793;28;20868;-72
2023/02/19 02:33:44;;;;;;;11.60;8.60;;;6.40;99.90;;;;;;4992623;28;20500;-72
2023/02/19 02:36:17;;;;;;;11.20;8.20;;;6.40;99.90;;;;;;4976493;28;20521;-73
2023/02/19 02:38:48;;;;;;;9.67;7.67;;;6.30;99.90;;;;;;4992476;28;20905;-72
2023/02/19 02:41:21;;;;;;;9.80;8.37;;;6.30;99.90;;;;;;4977223;28;20513;-72
2023/02/19 02:43:49;;;;;;;11.13;8.80;;;6.30;99.90;;;;;;4976247;28;20445;-72
2023/02/19 02:46:23;;;;;;;11.77;9.37;;;6.30;99.90;;;;;;4976184;28;20480;-72
2023/02/19 02:48:56;;;;;;;12.40;9.53;;;6.30;99.90;;;;;;4976261;28;20447;-73
2023/02/19 02:51:29;;;;;;;14.10;10.20;;;6.20;99.90;;;;;;4976526;28;20902;-73
2023/02/19 02:56:56;;;;;;;11.13;8.70;;;6.20;99.90;;;;;;4993738;28;20518;-73
2023/02/19 02:59:31;;;;;;;12.83;9.60;;;6.20;99.90;;;;;;4992521;28;20539;-73
2023/02/19 03:02:09;;;;;;;13.97;10.10;;;6.20;99.90;;;;;;4977136;28;20490;-73
2023/02/19 03:07:37;;;;;;;13.40;10.33;;;6.10;99.90;;;;;;4955350;28;20879;-73
2023/02/19 03:10:09;;;;;;;11.20;8.80;;;6.10;99.90;;;;;;4976278;28;20833;-73
2023/02/19 03:21:07;;;;;;;11.00;8.70;;;6.00;99.90;;;;;;4979874;28;20483;-73
2023/02/19 03:26:26;;;;;;;12.83;10.03;;;6.00;99.90;;;;;;4998489;28;20448;-73
2023/02/19 03:31:46;;;;;;;11.17;8.43;;;6.00;99.90;;;;;;4983375;28;20469;-73
2023/02/19 03:34:22;;;;;;;13.03;9.33;;;6.00;99.90;;;;;;4998838;28;20539;-73
2023/02/19 03:37:00;;;;;;;10.13;7.70;;;6.00;99.90;;;;;;4982038;28;20956;-73
2023/02/19 03:39:29;;;;;;;9.20;7.07;;;6.00;99.90;;;;;;4981744;28;20433;-73
2023/02/19 03:42:03;;;;;;;11.00;7.43;;;6.00;99.90;;;;;;4997423;28;20512;-73
2023/02/19 03:44:41;;;;;;;12.87;7.40;;;6.00;99.90;;;;;;4979628;28;20453;-73
2023/02/19 03:47:16;;;;;;;12.07;6.30;;;6.00;99.90;;;;;;4979742;28;20449;-73
2023/02/19 03:49:49;;;;;;;9.67;5.60;;;6.00;99.90;;;;;;4995303;28;20826;-73
2023/02/19 03:52:25;;;;;;;8.90;5.43;;;5.90;99.90;;;;;;4995247;28;20441;-73
2023/02/19 03:55:01;;;;;;;10.37;4.80;;;5.90;99.90;;;;;;4996660;28;20428;-73
2023/02/19 03:57:39;;;;;;;10.00;4.50;;;5.90;99.90;;;;;;4978887;28;20825;-73
2023/02/19 04:00:13;;;;;;;9.57;4.20;;;5.90;99.90;;;;;;4994881;28;20475;-73
2023/02/19 04:02:48;;;;;;;7.70;3.20;;;5.80;99.90;;;;;;4995284;28;20443;-73
2023/02/19 04:05:21;;;;;;;10.53;3.63;;;5.80;99.90;;;;;;4978971;28;20467;-73
2023/02/19 04:07:52;;;;;;;6.63;3.60;;;5.80;99.90;;;;;;4978649;28;20866;-72
2023/02/19 04:10:25;;;;;;;8.87;3.73;;;5.70;99.90;;;;;;4994724;28;20476;-73
2023/02/19 04:13:01;;;;;;;8.93;4.00;;;5.70;99.90;;;;;;4994755;28;20444;-73
2023/02/19 04:15:33;;;;;;;8.60;3.40;;;5.70;99.90;;;;;;4996191;28;20783;-73
2023/02/19 04:18:06;;;;;;;9.80;4.40;;;5.60;99.90;;;;;;4995976;28;20432;-73
2023/02/19 04:20:39;;;;;;;8.40;5.03;;;5.70;99.90;;;;;;4995902;28;20483;-73
2023/02/19 04:23:08;;;;;;;7.63;4.87;;;5.60;99.90;;;;;;4995828;28;20457;-73
2023/02/19 04:25:39;;;;;;;9.83;5.40;;;5.60;99.90;;;;;;4995098;28;20450;-73
2023/02/19 04:28:08;;;;;;;8.97;5.80;;;5.60;99.90;;;;;;4995980;28;20433;-73
2023/02/19 04:30:36;;;;;;;9.17;4.83;;;5.60;99.90;;;;;;4995589;28;20495;-73
2023/02/19 04:33:05;;;;;;;8.03;5.70;;;5.60;99.90;;;;;;4995548;28;20468;-73
2023/02/19 04:35:33;;;;;;;12.43;6.10;;;5.50;99.90;;;;;;4995508;28;20936;-72
2023/02/19 04:38:02;;;;;;;9.53;5.60;;;5.60;99.90;;;;;;4995651;28;20945;-73
2023/02/19 04:40:30;;;;;;;6.13;3.40;;;5.60;99.90;;;;;;4994084;28;21032;-73
2023/02/19 04:42:58;;;;;;;8.23;3.07;;;5.50;99.90;;;;;;4995668;28;20429;-72
2023/02/19 04:45:27;;;;;;;7.17;2.93;;;5.50;99.90;;;;;;4995329;28;20437;-72
2023/02/19 04:47:57;;;;;;;5.77;2.70;;;5.50;99.90;;;;;;4995348;28;20477;-73
2023/02/19 04:50:25;;;;;;;7.40;2.17;;;5.40;99.90;;;;;;4977926;28;20812;-72
2023/02/19 04:52:53;;;;;;;5.63;2.10;;;5.40;99.90;;;;;;4977779;28;20449;-72
2023/02/19 04:55:22;;;;;;;6.40;2.13;;;5.40;99.90;;;;;;4995272;28;20436;-72
2023/02/19 04:57:50;;;;;;;6.53;2.50;;;5.40;99.90;;;;;;4995077;28;20437;-72
2023/02/19 05:00:19;;;;;;;4.70;2.20;;;5.30;99.90;;;;;;4977562;28;20489;-72
2023/02/19 05:02:47;;;;;;;8.23;2.73;;;5.30;99.90;;;;;;4995095;28;20892;-72
2023/02/19 05:05:15;;;;;;;5.47;1.90;;;5.30;99.90;;;;;;4994927;28;20441;-72
2023/02/19 05:07:43;;;;;;;6.90;2.90;;;5.30;99.90;;;;;;4995500;28;20459;-72
2023/02/19 05:10:11;;;;;;;6.73;2.47;;;5.20;99.90;;;;;;4994833;28;20453;-72
2023/02/19 05:12:41;;;;;;;7.13;2.67;;;5.20;99.90;;;;;;4995101;28;20956;-72
2023/02/19 05:15:09;;;;;;;5.50;2.67;;;5.20;99.90;;;;;;4993593;28;20445;-72
2023/02/19 05:17:37;;;;;;;7.37;2.90;;;5.20;99.90;;;;;;4994698;28;20451;-72
2023/02/19 05:20:06;;;;;;;7.00;3.00;;;5.20;99.90;;;;;;4994629;28;20986;-72
2023/02/19 05:22:34;;;;;;;5.23;2.57;;;5.20;99.90;;;;;;4994588;28;20468;-72
2023/02/19 05:25:02;;;;;;;9.37;3.53;;;5.20;99.90;;;;;;4995176;28;20443;-72
2023/02/19 05:27:31;;;;;;;7.63;3.23;;;5.20;99.90;;;;;;4994625;28;20441;-72
2023/02/19 05:30:00;;;;;;;6.17;3.30;;;5.20;99.90;;;;;;4994476;28;20437;-72
2023/02/19 05:32:28;;;;;;;7.53;2.83;;;5.20;99.90;;;;;;4977071;28;20449;-72
2023/02/19 05:34:57;;;;;;;4.30;2.50;;;5.30;99.90;;;;;;4977002;28;20457;-72
2023/02/19 05:37:25;;;;;;;6.23;2.60;;;5.30;99.90;;;;;;4994371;28;20446;-72
2023/02/19 05:39:53;;;;;;;5.40;2.50;;;5.30;99.90;;;;;;4994531;28;20966;-72
2023/02/19 05:42:21;;;;;;;6.63;3.20;;;5.20;99.90;;;;;;4992981;28;20479;-72
2023/02/19 05:44:49;;;;;;;7.57;3.30;;;5.30;99.90;;;;;;4994467;28;20472;-72
2023/02/19 05:47:19;;;;;;;7.57;3.53;;;5.20;99.90;;;;;;4976969;28;20452;-72
2023/02/19 05:49:47;;;;;;;5.00;2.90;;;5.20;99.90;;;;;;4976667;28;20460;-72
2023/02/19 05:52:15;;;;;;;4.97;2.90;;;5.20;99.90;;;;;;4994221;28;20444;-72
2023/02/19 05:54:43;;;;;;;7.07;3.50;;;5.20;99.90;;;;;;4994197;28;20442;-72
2023/02/19 05:57:11;;;;;;;6.63;4.30;;;5.20;99.90;;;;;;4994054;28;20441;-72
2023/02/19 05:59:39;;;;;;;6.67;2.70;;;5.20;99.90;;;;;;4994087;28;20436;-72
2023/02/19 06:02:09;;;;;;;6.60;3.37;;;5.20;99.90;;;;;;4976534;28;20568;-72
2023/02/19 06:04:39;;;;;;;8.53;3.50;;;5.20;99.90;;;;;;4994082;28;20437;-72
2023/02/19 06:07:07;;;;;;;7.83;4.03;;;5.20;99.90;;;;;;4993854;28;20459;-72
2023/02/19 06:09:35;;;;;;;8.27;4.53;;;5.20;99.90;;;;;;4976505;28;20499;-72
2023/02/19 06:12:04;;;;;;;7.77;4.20;;;5.20;99.90;;;;;;4993828;28;20461;-72
2023/02/19 06:14:32;;;;;;;8.03;3.57;;;5.20;99.90;;;;;;4993926;28;20437;-72
2023/02/19 06:17:00;;;;;;;6.27;4.00;;;5.20;99.90;;;;;;4992847;28;20471;-72
2023/02/19 06:19:28;;;;;;;7.53;4.77;;;5.10;99.90;;;;;;4976446;28;20820;-72
2023/02/19 06:21:58;;;;;;;8.73;4.47;;;5.30;99.90;;;;;;4993729;28;20589;-72
2023/02/19 06:24:26;;;;;;;10.27;5.30;;;5.10;99.90;;;;;;4994025;28;20437;-72
2023/02/19 06:26:54;;;;;;;8.07;4.40;;;5.10;99.90;;;;;;4976299;28;20560;-72
2023/02/19 06:29:22;;;;;;;8.40;4.80;;;5.10;99.90;;;;;;4992764;28;20451;-72
2023/02/19 06:31:50;;;;;;;12.60;5.13;;;5.10;99.90;;;;;;4976304;28;20480;-72
2023/02/19 06:34:19;;;;;;;8.70;5.47;;;5.10;99.90;;;;;;4992567;28;20460;-72
2023/02/19 06:36:49;;;;;;;7.93;5.07;;;5.10;99.90;;;;;;4992849;28;20468;-72
2023/02/19 06:39:18;;;;;;;9.53;5.77;;;5.10;99.90;;;;;;4976299;28;20448;-72
2023/02/19 06:41:47;;;;;;;10.83;4.63;;;5.00;99.90;;;;;;4993489;28;20461;-72
2023/02/19 06:44:15;;;;;;;9.80;4.70;;;5.00;99.90;;;;;;4993957;28;20929;-72
2023/02/19 06:46:43;;;;;;;10.77;4.87;;;5.00;99.90;;;;;;4993156;28;20455;-72
2023/02/19 06:49:11;;;;;;;8.37;4.43;;;5.00;99.90;;;;;;4995270;28;20947;-72
2023/02/19 06:51:39;;;;;;;12.37;4.63;;;5.00;99.90;;;;;;4980152;28;20479;-72
2023/02/19 06:54:07;;;;;;;11.00;4.70;;;5.00;99.90;;;;;;4997462;28;20444;-72
2023/02/19 06:56:39;;;;;;;8.30;4.50;;;5.00;99.90;;;;;;4979891;28;20441;-72
2023/02/19 06:59:10;;;;;;;6.73;3.87;;;5.00;99.90;;;;;;4980072;28;20499;-72
2023/02/19 07:01:39;;;;;;;11.00;5.83;;;5.00;99.90;;;;;;4997326;28;20464;-72
2023/02/19 07:04:07;;;;;;;8.13;5.37;;;5.10;99.90;;;;;;4996121;28;20446;-72
2023/02/19 07:06:36;;;;;;;6.83;4.53;;;5.10;99.90;;;;;;4997336;28;20538;-72
2023/02/19 07:09:06;;;;;;;10.53;5.07;;;5.10;99.90;;;;;;4997203;28;20464;-72
2023/02/19 07:11:36;;;;;;;8.67;4.27;;;5.10;99.90;;;;;;4997745;28;20464;-72
2023/02/19 07:14:07;;;;;;;9.33;4.50;;;5.10;99.90;;;;;;4997848;28;20899;-72
2023/02/19 07:16:36;;;;;;;7.70;4.13;;;5.10;99.90;;;;;;4997426;28;20468;-72
2023/02/19 07:19:04;;;;;;;7.80;4.20;;;5.10;99.90;;;;;;4996037;28;20499;-72
2023/02/19 07:21:36;;;;;;;11.27;5.07;;;5.20;99.90;;;;;;4996836;28;20460;-72
2023/02/19 07:24:05;;;;;;;8.57;5.63;;;5.20;99.90;;;;;;4979418;28;20467;-72
2023/02/19 07:26:33;;;;;;;10.10;5.30;;;5.10;99.90;;;;;;4995549;28;21025;-72
2023/02/19 07:29:01;;;;;;;9.13;5.30;;;5.10;99.90;;;;;;4997090;28;20448;-72
2023/02/19 07:31:31;;;;;;;8.80;5.80;;;5.20;99.90;;;;;;4995483;28;20464;-72
2023/02/19 07:33:59;;;;;;;9.60;5.87;;;5.20;99.90;;;;;;4996645;28;20451;-72
2023/02/19 07:36:27;;;;;;;12.70;5.40;;;5.20;99.90;;;;;;4996920;28;20448;-72
2023/02/19 07:38:56;;;;;;;8.57;6.00;;;5.10;99.90;;;;;;4996592;28;20451;-72
2023/02/19 07:41:25;;;;;;;12.50;5.90;;;5.10;99.90;;;;;;4996551;28;20457;-72
2023/02/19 07:43:57;;;;;;;10.43;6.40;;;5.10;99.90;;;;;;4995244;28;20465;-72
2023/02/19 07:46:25;;;;;;;11.60;7.50;;;5.20;99.90;;;;;;4979171;28;20448;-72
2023/02/19 07:48:55;;;;;;;9.23;6.87;;;5.20;99.90;;;;;;4978983;28;20822;-72
2023/02/19 07:51:24;;;;;;;14.13;9.00;;;5.20;99.90;;;;;;4996317;28;20456;-72
2023/02/19 07:53:52;;;;;;;16.13;10.07;;;5.20;99.90;;;;;;4996570;28;20481;-72
2023/02/19 07:56:21;;;;;;;14.27;11.60;;;5.20;99.90;;;;;;4996276;28;20487;-72
2023/02/19 07:58:49;;;;;;;15.97;11.43;;;5.30;99.90;;;;;;4996173;28;20467;-72
2023/02/19 08:02:58;;;;;;;17.77;12.73;;;5.30;99.90;;;;;;4995180;28;20467;-72
2023/02/19 08:04:08;;;;;;;17.10;11.27;;;5.40;99.90;;;;;;4996640;28;20495;-72
2023/02/19 08:06:36;;;;;;;13.00;10.63;;;5.40;99.90;;;;;;4996098;28;20875;-72
2023/02/19 08:09:05;;;;;;;16.03;12.40;;;5.40;99.90;;;;;;4996097;28;20444;-72
2023/02/19 08:14:19;;;;;;;14.20;11.00;;;5.50;99.90;;;;;;4995993;28;20421;-72
2023/02/19 08:16:50;;;;;;;18.43;12.17;;;5.60;99.90;;;;;;4995895;28;20445;-72
2023/02/19 08:19:19;;;;;;;11.73;9.77;;;5.60;99.90;;;;;;4996042;28;20985;-72
2023/02/19 08:21:49;;;;;;;11.53;8.50;;;5.70;99.90;;;;;;4995721;28;20459;-72
2023/02/19 08:24:17;;;;;;;12.40;9.77;;;5.80;99.90;;;;;;4995673;28;20580;-72
2023/02/19 08:26:45;;;;;;;14.00;8.87;;;5.90;99.90;;;;;;4995728;28;20928;-72
2023/02/19 08:29:13;;;;;;;10.63;8.63;;;6.00;99.90;;;;;;4996323;28;20449;-72
2023/02/19 08:31:41;;;;;;;9.87;7.60;;;6.00;99.90;;;;;;4995570;28;20449;-72
2023/02/19 08:34:10;;;;;;;13.07;8.57;;;6.00;99.90;;;;;;4995641;28;20429;-72
2023/02/19 08:36:40;;;;;;;10.63;7.30;;;6.00;99.90;;;;;;4978036;28;20449;-72
2023/02/19 08:39:08;;;;;;;10.90;7.00;;;6.00;99.90;;;;;;4995448;28;20437;-72
2023/02/19 08:41:36;;;;;;;9.97;7.57;;;6.00;99.90;;;;;;4995589;28;20563;-72
2023/02/19 08:44:04;;;;;;;11.27;6.30;;;6.00;99.90;;;;;;4994064;28;20476;-72
2023/02/19 08:46:32;;;;;;;10.17;6.23;;;6.00;99.90;;;;;;4995617;28;20800;-72
2023/02/19 08:49:01;;;;;;;13.33;6.83;;;6.00;99.90;;;;;;4977829;28;20449;-72
2023/02/19 08:51:29;;;;;;;9.57;5.43;;;6.00;99.90;;;;;;4994090;28;20477;-72
2023/02/19 08:54:01;;;;;;;11.30;5.97;;;6.00;99.90;;;;;;4995452;28;20441;-72
2023/02/19 08:56:30;;;;;;;9.87;5.80;;;6.00;99.90;;;;;;4994029;28;20441;-72
2023/02/19 08:58:58;;;;;;;8.90;5.77;;;6.00;99.90;;;;;;4993859;28;20829;-72
2023/02/19 09:01:26;;;;;;;9.00;5.70;;;6.00;99.90;;;;;;4993751;28;20472;-72
2023/02/19 09:03:54;;;;;;;8.10;4.93;;;6.00;99.90;;;;;;4994961;28;20508;-71
2023/02/19 09:06:22;;;;;;;7.27;4.73;;;6.10;99.90;;;;;;4995010;28;20511;-72
2023/02/19 09:08:50;;;;;;;9.00;5.90;;;6.10;99.90;;;;;;4994914;28;20437;-72
2023/02/19 09:11:20;;;;;;;7.60;4.80;;;6.10;99.90;;;;;;4993223;28;20499;-72
2023/02/19 09:13:48;;;;;;;9.60;5.60;;;6.10;99.90;;;;;;4995121;28;20433;-72
2023/02/19 09:16:16;;;;;;;14.40;5.60;;;6.10;99.90;;;;;;4977376;28;20516;-72
2023/02/19 09:18:45;;;;;;;7.50;4.57;;;6.20;99.90;;;;;;4994963;28;20540;-72
2023/02/19 09:21:13;;;;;;;10.00;5.67;;;6.20;99.90;;;;;;4994632;28;20503;-72
2023/02/19 09:23:41;;;;;;;8.87;5.40;;;6.20;99.90;;;;;;4977120;28;20480;-72
2023/02/19 09:26:10;;;;;;;8.77;5.23;;;6.30;99.90;;;;;;4994627;28;20954;-72
2023/02/19 09:28:40;;;;;;;9.00;5.00;;;6.30;99.90;;;;;;4994944;28;20449;-72
2023/02/19 09:31:11;;;;;;;7.40;4.93;;;6.30;99.90;;;;;;4977041;28;20528;-72
2023/02/19 09:33:43;;;;;;;8.37;4.37;;;6.30;99.90;;;;;;4994563;28;20785;-72
2023/02/19 09:36:11;;;;;;;8.83;4.30;;;6.30;99.90;;;;;;4994050;28;20840;-72
2023/02/19 09:38:40;;;;;;;8.93;4.87;;;6.30;99.90;;;;;;4994363;28;20964;-73
2023/02/19 09:41:14;;;;;;;12.50;4.87;;;6.40;99.90;;;;;;4994269;28;20468;-72
2023/02/19 09:43:44;;;;;;;9.23;3.97;;;6.40;99.90;;;;;;4977972;28;20467;-72
2023/02/19 09:46:28;;;;;;;5.50;4.50;;;6.40;99.90;;;;;;4993149;28;20450;-72
2023/02/19 09:49:03;;;;;;;6.97;3.97;;;6.50;99.90;;;;;;4994571;28;20417;-72
2023/02/19 09:51:34;;;;;;;7.30;3.37;;;6.50;99.90;;;;;;4976647;28;20465;-72
2023/02/19 09:54:04;;;;;;;8.93;2.87;;;6.60;99.90;;;;;;4977033;28;20441;-72
2023/02/19 09:56:33;;;;;;;6.07;3.03;;;6.60;99.90;;;;;;4977009;28;20953;-72
2023/02/19 09:59:03;;;;;;;6.00;3.40;;;6.60;99.90;;;;;;4992886;28;20449;-72
2023/02/19 10:01:37;;;;;;;6.93;3.13;;;6.60;99.90;;;;;;4994250;28;20468;-72
2023/02/19 10:04:05;;;;;;;6.30;2.40;;;6.60;99.90;;;;;;4993997;28;20886;-72
2023/02/19 10:06:35;;;;;;;6.80;2.80;;;6.70;99.90;;;;;;4994282;28;20457;-72
2023/02/19 10:09:16;;;;;;;6.40;2.70;;;6.70;99.90;;;;;;4994427;28;20491;-72
2023/02/19 10:11:44;;;;;;;6.80;2.87;;;6.70;99.90;;;;;;4976494;28;20818;-72
2023/02/19 10:14:17;;;;;;;7.13;3.10;;;6.80;99.90;;;;;;4992667;28;20448;-72
2023/02/19 10:16:48;;;;;;;9.80;3.03;;;6.80;99.90;;;;;;4994233;28;20835;-72
2023/02/19 10:19:17;;;;;;;5.53;3.30;;;6.80;99.90;;;;;;4994702;28;20424;-72
2023/02/19 10:21:45;;;;;;;6.10;2.63;;;6.80;99.90;;;;;;4976357;28;20462;-72
2023/02/19 10:24:20;;;;;;;5.13;2.80;;;6.80;99.90;;;;;;4993237;28;20470;-72
2023/02/19 10:26:50;;;;;;;9.10;3.17;;;6.80;99.90;;;;;;4993803;28;20420;-72
2023/02/19 10:29:20;;;;;;;5.77;2.67;;;6.80;99.90;;;;;;4993661;28;20448;-72
2023/02/19 10:31:50;;;;;;;7.83;3.13;;;6.90;99.90;;;;;;4993658;28;20561;-72
2023/02/19 10:34:22;;;;;;;7.17;2.60;;;7.00;99.90;;;;;;4993974;28;20442;-72
2023/02/19 10:36:52;;;;;;;7.10;2.77;;;7.00;99.90;;;;;;4976255;28;20466;-72
2023/02/19 10:39:41;;;;;;;8.13;2.90;;;7.00;99.90;;;;;;4976195;28;20456;-72
2023/02/19 10:42:16;;;;;;;6.43;2.30;;;7.10;99.90;;;;;;4994394;28;20517;-72
2023/02/19 10:44:48;;;;;;;7.50;2.70;;;7.10;99.90;;;;;;4994352;28;20460;-72
2023/02/19 10:47:19;;;;;;;4.47;2.17;;;7.20;99.90;;;;;;4976392;28;20446;-72
2023/02/19 10:49:49;;;;;;;5.07;1.90;;;7.20;99.90;;;;;;4993574;28;20454;-72
2023/02/19 10:52:21;;;;;;;6.03;1.97;;;7.20;99.90;;;;;;4993877;28;20448;-72
2023/02/19 10:54:51;;;;;;;5.63;1.60;;;7.20;99.90;;;;;;4993585;28;20442;-72
2023/02/19 10:57:33;;;;;;;5.03;1.60;;;7.10;99.90;;;;;;4993562;28;20422;-72
2023/02/19 11:00:21;;;;;;;5.70;1.90;;;7.20;99.90;;;;;;4994159;28;20474;-72
2023/02/19 11:02:49;;;;;;;4.80;1.90;;;7.20;99.90;;;;;;4993478;28;20434;-72
2023/02/19 11:05:20;;;;;;;7.20;1.90;;;7.20;99.90;;;;;;4975843;28;20850;-72
2023/02/19 11:07:50;;;;;;;7.33;2.10;;;7.30;99.90;;;;;;4992356;28;20468;-72
2023/02/19 11:10:26;;;;;;;5.53;1.70;;;7.30;99.90;;;;;;4993551;28;20462;-72
2023/02/19 11:12:57;;;;;;;5.23;1.90;;;7.30;99.90;;;;;;4993941;28;20423;-72
2023/02/19 11:15:29;;;;;;;7.63;1.80;;;7.30;99.90;;;;;;4992168;28;20488;-72
2023/02/19 11:18:01;;;;;;;8.87;2.80;;;7.30;99.90;;;;;;4993920;28;20964;-72
2023/02/19 11:20:30;;;;;;;6.43;3.10;;;7.40;99.90;;;;;;4993696;28;20493;-72
2023/02/19 11:23:04;;;;;;;5.23;2.37;;;7.40;99.90;;;;;;4992074;28;20442;-72
2023/02/19 11:25:33;;;;;;;4.40;1.77;;;7.40;99.90;;;;;;4993786;28;20492;-72
2023/02/19 11:28:07;;;;;;;6.30;1.80;;;7.40;99.90;;;;;;4993412;28;20482;-72
2023/02/19 11:30:39;;;;;;;6.10;2.57;;;7.40;99.90;;;;;;4993487;28;20598;-72
2023/02/19 11:33:22;;;;;;;7.30;1.53;;;7.50;99.90;;;;;;4975894;28;20478;-72
2023/02/19 11:35:52;;;;;;;5.37;1.63;;;7.50;99.90;;;;;;4995735;28;20426;-72
2023/02/19 11:38:21;;;;;;;6.10;1.50;;;7.50;99.90;;;;;;4996657;28;20424;-72
2023/02/19 11:40:58;;;;;;;7.20;1.97;;;7.60;99.90;;;;;;4996729;28;20517;-72
2023/02/19 11:43:47;;;;;;;4.67;2.10;;;7.60;99.90;;;;;;4996400;28;20826;-72
2023/02/19 11:46:30;;;;;;;5.53;1.60;;;7.70;99.90;;;;;;4996482;28;20513;-72
2023/02/19 11:49:16;;;;;;;7.60;1.47;;;7.60;99.90;;;;;;4980120;28;20448;-72
2023/02/19 11:52:02;;;;;;;4.30;1.83;;;7.60;99.90;;;;;;4996492;28;20468;-72
2023/02/19 11:54:49;;;;;;;7.50;2.23;;;7.60;99.90;;;;;;4978932;28;20541;-72
2023/02/19 11:57:31;;;;;;;5.40;1.50;;;7.70;99.90;;;;;;4996861;28;20435;-72
2023/02/19 12:00:16;;;;;;;6.30;1.70;;;7.70;99.90;;;;;;4996490;28;20426;-72
2023/02/19 12:03:09;;;;;;;5.23;1.57;;;7.80;99.90;;;;;;4994981;28;20500;-72
2023/02/19 12:06:13;;;;;;;5.07;1.80;;;7.80;99.90;;;;;;4994849;28;20561;-72
2023/02/19 12:08:56;;;;;;;6.43;1.70;;;7.90;99.90;;;;;;4986684;28;20455;-72
2023/02/19 12:11:39;;;;;;;7.90;2.07;;;8.00;99.90;;;;;;4978477;28;20485;-72
2023/02/19 12:14:55;;;;;;;6.67;1.60;;;8.00;99.90;;;;;;4996043;28;20432;-72
2023/02/19 12:17:45;;;;;;;7.40;1.90;;;8.00;99.90;;;;;;4995677;28;20448;-72
2023/02/19 12:20:21;;;;;;;5.00;1.10;;;8.00;99.90;;;;;;4994741;28;20560;-72
2023/02/19 12:23:01;;;;;;;4.73;1.20;;;8.00;99.90;;;;;;4994713;28;20452;-72
2023/02/19 12:25:42;;;;;;;6.70;1.70;;;8.00;99.90;;;;;;4996642;28;20506;-72
2023/02/19 12:28:28;;;;;;;6.50;1.50;;;7.90;99.90;;;;;;4978766;28;20448;-72
2023/02/19 12:31:10;;;;;;;4.83;1.67;;;7.90;99.90;;;;;;4996369;28;20466;-72
2023/02/19 12:33:59;;;;;;;4.73;1.33;;;7.90;99.90;;;;;;4996250;28;20424;-72
2023/02/19 12:36:37;;;;;;;5.60;1.57;;;7.90;99.90;;;;;;4995694;28;20420;-72
2023/02/19 12:39:15;;;;;;;5.27;1.50;;;7.90;99.90;;;;;;4995626;28;20522;-73
2023/02/19 12:41:49;;;;;;;6.30;2.00;;;7.90;99.90;;;;;;4995818;28;20463;-72
2023/02/19 12:44:22;;;;;;;5.20;1.40;;;7.90;99.90;;;;;;4978028;28;20479;-72
2023/02/19 12:46:54;;;;;;;7.57;2.10;;;8.00;99.90;;;;;;4993486;28;20589;-72
2023/02/19 12:49:27;;;;;;;6.33;1.77;;;8.00;99.90;;;;;;4995661;28;20459;-72
2023/02/19 12:52:01;;;;;;;7.10;2.00;;;7.90;99.90;;;;;;4995300;28;20464;-72
2023/02/19 12:54:37;;;;;;;5.13;1.97;;;7.90;99.90;;;;;;4995518;28;20441;-73
2023/02/19 12:57:12;;;;;;;7.00;1.97;;;7.90;99.90;;;;;;4994273;28;20467;-72
2023/02/19 12:59:46;;;;;;;5.70;1.57;;;7.90;99.90;;;;;;4995443;28;20873;-73
2023/02/19 13:02:19;;;;;;;6.47;1.50;;;8.00;99.90;;;;;;4995670;28;20511;-72
2023/02/19 13:04:58;;;;;;;5.20;1.90;;;8.00;99.90;;;;;;4995288;28;20432;-72
2023/02/19 13:07:36;;;;;;;6.40;2.23;;;8.00;99.90;;;;;;4993811;28;20459;-72
2023/02/19 13:10:17;;;;;;;8.30;1.90;;;8.10;99.90;;;;;;4995413;28;20455;-72
2023/02/19 13:12:46;;;;;;;5.13;1.80;;;8.10;99.90;;;;;;4995237;28;20425;-73
2023/02/19 13:15:18;;;;;;;5.23;1.57;;;8.20;99.90;;;;;;4994973;28;20523;-72
2023/02/19 13:17:51;;;;;;;5.50;1.60;;;8.30;99.90;;;;;;4994928;28;20793;-73
2023/02/19 13:20:26;;;;;;;5.57;1.90;;;8.30;99.90;;;;;;4977450;28;20499;-72
2023/02/19 13:26:30;;;;;;;6.83;1.87;;;8.40;99.90;;;;;;4934659;29;20489;-72
2023/02/19 13:29:16;;;;;;;6.07;1.80;;;8.40;99.90;;;;;;4992816;28;20453;-72
2023/02/19 13:32:03;;;;;;;5.87;1.27;;;8.40;99.90;;;;;;4994539;28;20821;-72
2023/02/19 13:34:47;;;;;;;3.67;1.37;;;8.40;99.90;;;;;;4994810;28;20428;-72
2023/02/19 13:37:17;;;;;;;6.67;1.90;;;8.50;99.90;;;;;;4993269;28;20459;-72
2023/02/19 13:39:49;;;;;;;4.80;1.40;;;8.50;99.90;;;;;;4976880;28;20448;-72
2023/02/19 13:42:25;;;;;;;4.97;1.70;;;8.50;99.90;;;;;;4994603;28;20512;-73
2023/02/19 13:44:55;;;;;;;5.37;1.80;;;8.50;99.90;;;;;;4976932;28;20444;-73
2023/02/19 13:47:46;;;;;;;6.20;1.90;;;8.50;99.90;;;;;;4993276;28;20463;-73